Metar Cercanos

 

LEPA - Palma De Mallorc, Spain
Distance from station: ONO 38km
Actualización: 20/10/2018 00:30
Few Clouds
Few Clouds
 Viento del varies
Viento: varies 4 km/h
Temperatura: 18°C
Rocío: 18°C
Humedad: 100%
Barómetro: 1017 hPa
Clouds: Few Clouds
Visibility: 10 km
Cloud details: Few Clouds 762 m
2018/10/19 22:30 LEPA 192230Z VRB02KT 9999 FEW025 18/18 Q1017 NOSIG
LEMH - Mahon/Menorca Is, Spain
Distance from station: ENE 105km
Actualización: 20/10/2018 00:30
Few Clouds
Few Clouds
 Viento del ESE
Viento: ESE 6 km/h
Temperatura: 19°C
Rocío: 18°C
Humedad: 94%
Barómetro: 1017 hPa
Clouds: Few Clouds
Visibility: 10 km
Cloud details: Few Clouds 610 m
2018/10/19 22:30 LEMH 192230Z 11003KT 9999 FEW020 19/18 Q1017
 
LEIB - Ibiza/Es Codola, Spain
Distance from station: OSO 165km
Actualización: 20/10/2018 00:30
Despejado
Despejado
 Viento del NO
Viento: NO 4 km/h
Temperatura: 17°C
Rocío: 16°C
Humedad: 94%
Barómetro: 1017 hPa
Resumen: Despejado
Visibility: greater than 10 km
2018/10/19 22:30 LEIB 192230Z 31002KT CAVOK 17/16 Q1017 NOSIG
LEBL - Barcelona Airpor, Spain
Distance from station: NNO 225km
Actualización: 20/10/2018 00:30
Thunderstorm rain, Few clouds
Thunderstorm rain, Few clouds
 Viento del O
Viento: O 13 km/h
Temperatura: 18°C
Rocío: 17°C
Humedad: 94%
Barómetro: 1019 hPa
Resumen: Thunderstorm Rain
Clouds: Few Clouds
Visibility: 7 km
Cloud details: Few Clouds 610 m
Few Clouds 914 m
2018/10/19 22:30 LEBL 192230Z 28007KT 7000 TSRA FEW020 FEW030CB 18/17 Q1019 TEMPO 4000 SCT025CB
 
LEVC - Valencia (civ/Mi, Spain
Distance from station: NO 188km
Actualización: 20/10/2018 00:30
Few Clouds
Few Clouds
 Viento del NE
Viento: NE 13 km/h
Temperatura: 19°C
Rocío: 17°C
Humedad: 88%
Barómetro: 1017 hPa
Clouds: Few Clouds
Visibility: 10 km
Cloud details: Few Clouds 762 m
2018/10/19 22:30 LEVC 192230Z 05007KT 360V080 9999 FEW025 19/17 Q1017 NOSIG
LEGE - Gerona/Costa Bra, Spain
Distance from station: N 276km
Actualización: 20/10/2018 00:30
Few Clouds
Few Clouds
 Viento del NNE
Viento: NNE 15 km/h
Temperatura: 18°C
Rocío: 15°C
Humedad: 83%
Barómetro: 1019 hPa
Clouds: Few Clouds
Visibility: 10 km
Cloud details: Few Clouds 1067 m
2018/10/19 22:30 LEGE 192230Z 03008KT 9999 FEW035 18/15 Q1019
 
LEAL - Alicante/El Alte, Spain
Distance from station: OSO 344km
Actualización: 20/10/2018 00:30
Despejado
Despejado
 Viento del N
Viento: N 9 km/h
Temperatura: 19°C
Rocío: 12°C
Humedad: 64%
Barómetro: 1016 hPa
Resumen: Despejado
Visibility: greater than 10 km
2018/10/19 22:30 LEAL 192230Z 01005KT 330V100 CAVOK 19/12 Q1016 NOSIG
LEAM - Almeria Airport, Spain
Distance from station: SSO 56km
Actualización: 20/10/2018 00:30
Despejado
Despejado
 Viento del N
Viento: N 9 km/h
Temperatura: 16°C
Rocío: 11°C
Humedad: 72%
Barómetro: 1015 hPa
Clouds: Despejado
Visibility: 10 km
2018/10/19 22:30 LEAM 192230Z AUTO 36005KT 9999 NCD 16/11 Q1015
 
LEZG - Zaragoza (mil/Ci, Spain
Distance from station: NO 431km
Actualización: 20/10/2018 00:30
Lluvia débil, Muy nuboso
Lluvia débil, Muy nuboso
 Viento del ESE
Viento: ESE 15 km/h
Temperatura: 16°C
Rocío: 15°C
Humedad: 94%
Barómetro: 1020 hPa
Resumen: Lluvia débil
Clouds: Muy nuboso
Visibility: 9 km
Cloud details: Few Clouds 366 m
Parcialmente nuboso 610 m
Muy nuboso 1219 m
2018/10/19 22:30 LEZG 192230Z 12008KT 080V150 9000 -RA FEW012 SCT020 BKN040 16/15 Q1020
LEMD - Madrid/Barajas, Spain
Distance from station: ONO 234km
Actualización: 20/10/2018 00:30
Light drizzle, Muy nuboso
Light drizzle, Muy nuboso
 Viento del NNO
Viento: NNO 9 km/h
Temperatura: 14°C
Rocío: 13°C
Humedad: 94%
Barómetro: 1018 hPa
Resumen: Light Drizzle
Clouds: Muy nuboso
Visibility: 10 km
Cloud details: Few Clouds 1372 m
Parcialmente nuboso 1829 m
Muy nuboso 2134 m
2018/10/19 22:30 LEMD 192230Z 33005KT 9999 -DZ FEW045 SCT060 BKN070 14/13 Q1018 R88/29//95 NOSIG
 
LEGR - Granada Airport, Spain
Distance from station: OSO 62km
Actualización: 20/10/2018 00:30
Despejado
Despejado
 Viento del varies
Viento: varies 2 km/h
Temperatura: 10°C
Rocío: 9°C
Humedad: 94%
Barómetro: 1015 hPa
Clouds: Despejado
Visibility: 10 km
2018/10/19 22:30 LEGR 192230Z AUTO VRB01KT 9999 NCD 10/09 Q1015
LEMG - Malaga (civ/Mil), Spain
Distance from station: OSO 227km
Actualización: 20/10/2018 00:30
Parcialmente nuboso
Parcialmente nuboso
 Viento del ONO
Viento: ONO 13 km/h
Temperatura: 15°C
Rocío: 13°C
Humedad: 88%
Barómetro: 1014 hPa
Clouds: Parcialmente nuboso
Visibility: 10 km
Cloud details: Few Clouds 610 m
Parcialmente nuboso 914 m
2018/10/19 22:30 LEMG 192230Z 29007KT 9999 FEW020 SCT030 15/13 Q1014 NOSIG
 
LEZL - Sevilla (civ/Mil, Spain
Distance from station: S 318km
Actualización: 20/10/2018 00:30
Despejado
Despejado
 Viento del ENE
Viento: ENE 6 km/h
Temperatura: 15°C
Rocío: 12°C
Humedad: 82%
Barómetro: 1013 hPa
Resumen: Despejado
Visibility: greater than 10 km
2018/10/19 22:30 LEZL 192230Z 06003KT 010V080 CAVOK 15/12 Q1013 NOSIG
LEVT - Vitoria, Spain
Distance from station: NO 226km
Actualización: 20/10/2018 00:30
Muy nuboso
Muy nuboso
 Viento del varies
Viento: varies 9 km/h
Temperatura: 13°C
Rocío: 11°C
Humedad: 88%
Barómetro: 1022 hPa
Clouds: Muy nuboso
Visibility: 8 km
Cloud details: Few Clouds 305 m
Muy nuboso 549 m
2018/10/19 22:30 LEVT 192230Z VRB05KT 8000 FEW010 BKN018 13/11 Q1022
 
LEBB - Bilbao/Sondica, Spain
Distance from station: NNO 235km
Actualización: 20/10/2018 00:30

 Viento del NNO
Viento: NNO 7 km/h
Visibility: 10 km
2018/10/19 22:30 LEBB 192230Z AUTO 33004KT 9999 4700 FEW015/// 16/15 Q1022
LESO - San Sebastian/Fu, Spain
Distance from station: N 231km
Actualización: 20/10/2018 00:30
Parcialmente nuboso
Parcialmente nuboso
 Viento del OSO
Viento: OSO 7 km/h
Temperatura: 16°C
Rocío: 15°C
Humedad: 94%
Barómetro: 1021 hPa
Clouds: Parcialmente nuboso
Visibility: 7 km
Cloud details: Parcialmente nuboso 335 m
2018/10/19 22:30 LESO 192230Z AUTO 25004KT 210V300 7000 SCT011/// 16/15 Q1021
 
LEVD - Valladolid(Mil/C, Spain
Distance from station: ONO 239km
Actualización: 19/10/2018 21:30
NOT Current
Despejado
Despejado
 Viento del NE
Viento: NE 30 km/h
Temperatura: 14°C
Rocío: 10°C
Humedad: 77%
Barómetro: 1019 hPa
Resumen: Despejado
Visibility: greater than 10 km
2018/10/19 19:30 LEVD 191930Z 05016KT CAVOK 14/10 Q1019
LESA - Salamanca (civ/M, Spain
Distance from station: ONO 349km
Actualización: 20/10/2018 00:30
Few Clouds
Few Clouds
 Viento del E
Viento: E 19 km/h
Clouds: Few Clouds
Visibility: 10 km
Cloud details: Few Clouds 823 m
2018/10/19 22:30 LESA 192230Z AUTO 08010KT 050V110 9999 FEW027/// BKN
 
LEXJ - Santander/Paraya, Spain
Distance from station: NNO 247km
Actualización: 20/10/2018 00:30
Mist, Muy nuboso
Mist, Muy nuboso
 Viento del SO
Viento: SO 6 km/h
Temperatura: 17°C
Rocío: 17°C
Humedad: 100%
Barómetro: 1022 hPa
Resumen: Mist
Clouds: Muy nuboso
Visibility: 3 km
Cloud details: Muy nuboso 732 m
Muy nuboso 884 m
2018/10/19 22:30 LEXJ 192230Z AUTO 23003KT 3300 BR BKN024/// BKN029/// 17/17 Q1022
LEAS - Asturias/Aviles, Spain
Distance from station: NO 214km
Actualización: 20/10/2018 00:30
Mist, Muy nuboso
Mist, Muy nuboso
 Viento del varies
Viento: varies 4 km/h
Temperatura: 15°C
Rocío: 15°C
Humedad: 100%
Barómetro: 1023 hPa
Resumen: Mist
Clouds: Muy nuboso
Visibility: 2 km
Cloud details: Parcialmente nuboso 122 m
Muy nuboso 366 m
Muy nuboso 640 m
2018/10/19 22:30 LEAS 192230Z VRB02KT 1500 BR SCT004 BKN012 BKN021 15/15 Q1023 TEMPO
 
LECO - La Coruna/Alvedr, Spain
Distance from station: ONO 222km
Actualización: 20/10/2018 00:30
Despejado
Despejado
 Viento del N
Viento: N 9 km/h
Temperatura: 16°C
Rocío: 13°C
Humedad: 83%
Barómetro: 1021 hPa
Resumen: Despejado
Visibility: greater than 10 km
2018/10/19 22:30 LECO 192230Z 35005KT CAVOK 16/13 Q1021 NOSIG
LEVX - Vigo/Peinador, Spain
Distance from station: O 214km
Actualización: 20/10/2018 00:30
Despejado
Despejado
 Viento del varies
Viento: varies 2 km/h
Temperatura: 16°C
Rocío: 13°C
Humedad: 83%
Barómetro: 1018 hPa
Resumen: Despejado
Visibility: greater than 10 km
2018/10/19 22:30 LEVX 192230Z VRB01KT CAVOK 16/13 Q1018 NOSIG